createdAt,value
2022-08-16T00:01:21.764Z,99.90
2022-08-16T00:03:53.646Z,99.90
2022-08-16T00:06:21.436Z,99.90
2022-08-16T00:08:49.533Z,99.90
2022-08-16T00:11:16.587Z,99.90
2022-08-16T00:13:53.451Z,99.90
2022-08-16T00:17:00.657Z,99.90
2022-08-16T00:19:14.909Z,99.90
2022-08-16T00:21:43.612Z,99.90
2022-08-16T00:24:12.528Z,99.90
2022-08-16T00:26:44.111Z,99.90
2022-08-16T00:29:15.388Z,99.90
2022-08-16T00:31:58.792Z,99.90
2022-08-16T00:34:45.193Z,99.90
2022-08-16T00:37:17.315Z,99.90
2022-08-16T00:39:47.239Z,99.90
2022-08-16T00:42:14.760Z,99.90
2022-08-16T00:45:08.369Z,99.90
2022-08-16T00:47:39.285Z,99.90
2022-08-16T00:50:11.441Z,99.90
2022-08-16T00:52:50.562Z,99.90
2022-08-16T00:55:22.477Z,99.90
2022-08-16T00:57:58.881Z,99.90
2022-08-16T01:00:29.811Z,99.90
2022-08-16T01:02:59.523Z,99.90
2022-08-16T01:05:27.309Z,99.90
2022-08-16T01:07:54.976Z,99.90
2022-08-16T01:10:31.307Z,99.90
2022-08-16T01:13:02.169Z,99.90
2022-08-16T01:15:31.894Z,99.90
2022-08-16T01:18:00.165Z,99.90
2022-08-16T01:20:30.587Z,99.90
2022-08-16T01:23:24.102Z,99.90
2022-08-16T01:25:59.694Z,99.90
2022-08-16T01:28:45.577Z,99.90
2022-08-16T01:31:14.541Z,99.90
2022-08-16T01:33:44.641Z,99.90
2022-08-16T01:36:13.118Z,99.90
2022-08-16T01:38:49.265Z,99.90
2022-08-16T01:41:26.556Z,99.90
2022-08-16T01:43:56.909Z,99.90
2022-08-16T01:46:39.109Z,99.90
2022-08-16T01:49:43.483Z,99.90
2022-08-16T01:52:29.619Z,99.90
2022-08-16T01:54:58.001Z,99.90
2022-08-16T01:57:27.211Z,99.90
2022-08-16T01:59:54.605Z,99.90
2022-08-16T02:02:28.357Z,99.90
2022-08-16T02:04:56.273Z,99.90
2022-08-16T02:07:24.532Z,99.90
2022-08-16T02:09:58.333Z,99.90
2022-08-16T02:12:39.770Z,99.90
2022-08-16T02:15:17.528Z,99.90
2022-08-16T02:17:52.537Z,99.90
2022-08-16T02:20:19.722Z,99.90
2022-08-16T02:22:55.171Z,99.90
2022-08-16T02:25:22.325Z,99.90
2022-08-16T02:27:51.095Z,99.90
2022-08-16T02:30:37.590Z,99.90
2022-08-16T02:33:11.365Z,99.90
2022-08-16T02:35:49.911Z,99.90
2022-08-16T02:38:21.955Z,99.90
2022-08-16T02:40:48.871Z,99.90
2022-08-16T02:43:15.937Z,99.90
2022-08-16T02:45:42.971Z,99.90
2022-08-16T02:48:29.482Z,99.90
2022-08-16T02:51:06.279Z,99.90
2022-08-16T02:53:43.107Z,99.90
2022-08-16T02:56:15.168Z,99.90
2022-08-16T02:58:44.124Z,99.90
2022-08-16T03:01:24.404Z,99.90
2022-08-16T03:04:29.816Z,99.90
2022-08-16T03:06:50.490Z,99.90
2022-08-16T03:09:22.849Z,99.90
2022-08-16T03:11:50.056Z,99.90
2022-08-16T03:14:21.187Z,99.90
2022-08-16T03:16:59.764Z,99.90
2022-08-16T03:19:48.268Z,99.90
2022-08-16T03:22:28.273Z,99.90
2022-08-16T03:24:58.985Z,99.90
2022-08-16T03:27:30.713Z,99.90
2022-08-16T03:30:16.179Z,99.90
2022-08-16T03:32:47.459Z,99.90
2022-08-16T03:35:15.085Z,99.90
2022-08-16T03:38:01.803Z,99.90
2022-08-16T03:40:32.900Z,99.90
2022-08-16T03:43:20.259Z,99.90
2022-08-16T03:45:47.034Z,99.90
2022-08-16T03:48:15.069Z,99.90
2022-08-16T03:51:00.145Z,99.90
2022-08-16T03:53:37.890Z,99.90
2022-08-16T03:56:07.342Z,99.90
2022-08-16T03:58:37.046Z,99.90
2022-08-16T04:01:05.082Z,99.90
2022-08-16T04:03:32.637Z,99.90
2022-08-16T04:05:59.940Z,99.90
2022-08-16T04:08:31.185Z,99.90
2022-08-16T04:10:58.321Z,99.90
2022-08-16T04:14:00.368Z,99.90
2022-08-16T04:16:27.580Z,99.90
2022-08-16T04:19:02.422Z,99.90
2022-08-16T04:21:32.624Z,99.90
2022-08-16T04:24:00.093Z,99.90
2022-08-16T04:26:30.591Z,99.90
2022-08-16T04:29:16.703Z,99.90
2022-08-16T04:31:47.133Z,99.90
2022-08-16T04:34:27.387Z,99.90
2022-08-16T04:36:54.929Z,99.90
2022-08-16T04:39:24.293Z,99.90
2022-08-16T04:41:57.106Z,99.90
2022-08-16T04:44:52.904Z,99.90
2022-08-16T04:47:21.640Z,99.90
2022-08-16T04:49:52.313Z,99.90
2022-08-16T04:52:35.074Z,99.90
2022-08-16T04:55:05.975Z,99.90
2022-08-16T04:57:32.637Z,99.90
2022-08-16T04:59:59.361Z,99.90
2022-08-16T05:02:49.033Z,99.90
2022-08-16T05:05:23.165Z,99.90
2022-08-16T05:07:58.357Z,99.90
2022-08-16T05:10:28.085Z,99.90
2022-08-16T05:13:00.623Z,99.90
2022-08-16T05:15:28.027Z,99.90
2022-08-16T05:17:58.854Z,99.90
2022-08-16T05:20:38.993Z,99.90
2022-08-16T05:23:15.117Z,99.90
2022-08-16T05:25:48.209Z,99.90
2022-08-16T05:28:17.369Z,99.90
2022-08-16T05:30:50.307Z,99.90
2022-08-16T05:33:18.326Z,99.90
2022-08-16T05:35:54.889Z,99.90
2022-08-16T05:38:32.407Z,99.90
2022-08-16T05:41:07.273Z,99.90
2022-08-16T05:43:43.309Z,99.90
2022-08-16T05:46:29.548Z,99.90
2022-08-16T05:49:03.721Z,99.90
2022-08-16T05:51:38.135Z,99.90
2022-08-16T05:54:07.871Z,99.90
2022-08-16T05:56:37.973Z,99.90
2022-08-16T05:59:06.123Z,99.90
2022-08-16T06:01:38.432Z,99.90
2022-08-16T06:04:13.259Z,99.90
2022-08-16T06:06:57.811Z,99.90
2022-08-16T06:09:43.758Z,99.90
2022-08-16T06:12:26.889Z,99.90
2022-08-16T06:15:04.253Z,99.90
2022-08-16T06:17:41.535Z,99.90
2022-08-16T06:20:23.975Z,99.90
2022-08-16T06:23:03.699Z,99.90
2022-08-16T06:25:52.948Z,99.90
2022-08-16T06:28:35.057Z,99.90
2022-08-16T06:31:06.703Z,99.90
2022-08-16T06:33:41.121Z,99.90
2022-08-16T06:36:09.865Z,99.90
2022-08-16T06:38:38.169Z,99.90
2022-08-16T06:41:22.198Z,99.90
2022-08-16T06:43:51.177Z,99.90
2022-08-16T06:46:31.915Z,99.90
2022-08-16T06:48:59.638Z,99.90
2022-08-16T06:51:46.612Z,99.90
2022-08-16T06:54:13.962Z,99.90
2022-08-16T06:56:42.370Z,99.90
2022-08-16T06:59:10.275Z,99.90
2022-08-16T07:01:43.124Z,99.90
2022-08-16T07:04:12.234Z,99.90
2022-08-16T07:06:43.145Z,99.90
2022-08-16T07:09:11.394Z,99.90
2022-08-16T07:11:45.526Z,99.90
2022-08-16T07:14:24.462Z,99.90
2022-08-16T07:16:54.043Z,99.90
2022-08-16T07:19:21.498Z,99.90
2022-08-16T07:21:59.319Z,99.90
2022-08-16T07:24:30.356Z,99.90
2022-08-16T07:27:00.577Z,99.90
2022-08-16T07:29:31.485Z,99.90
2022-08-16T07:32:00.672Z,99.90
2022-08-16T07:34:35.871Z,99.90
2022-08-16T07:37:10.698Z,99.90
2022-08-16T07:39:43.369Z,99.90
2022-08-16T07:42:20.086Z,99.90
2022-08-16T07:44:52.589Z,99.90
2022-08-16T07:47:20.065Z,99.90
2022-08-16T07:49:53.404Z,99.90
2022-08-16T07:52:29.845Z,99.90
2022-08-16T07:54:57.579Z,99.90
2022-08-16T07:57:24.854Z,99.90
2022-08-16T07:59:52.126Z,99.90
2022-08-16T08:02:20.396Z,99.90
2022-08-16T08:04:48.259Z,99.90
2022-08-16T08:07:16.363Z,99.90
2022-08-16T08:09:43.966Z,99.90
2022-08-16T08:12:32.640Z,99.90
2022-08-16T08:14:58.266Z,99.90
2022-08-16T08:17:43.037Z,99.90
2022-08-16T08:20:26.071Z,99.90
2022-08-16T08:23:00.584Z,99.90
2022-08-16T08:25:54.537Z,99.90
2022-08-16T08:28:19.952Z,99.90
2022-08-16T08:30:51.075Z,99.90
2022-08-16T08:33:28.929Z,99.90
2022-08-16T08:35:57.709Z,99.90
2022-08-16T08:38:44.260Z,99.90
2022-08-16T08:41:15.175Z,99.90
2022-08-16T08:43:42.913Z,99.90
2022-08-16T08:46:17.754Z,99.90
2022-08-16T08:48:46.358Z,99.90
2022-08-16T08:51:27.719Z,99.90
2022-08-16T08:54:06.843Z,99.90
2022-08-16T08:56:37.669Z,99.90
2022-08-16T08:59:19.873Z,99.90
2022-08-16T09:01:56.523Z,99.90
2022-08-16T09:04:26.012Z,99.90
2022-08-16T09:06:53.799Z,99.90
2022-08-16T09:09:21.353Z,99.90
2022-08-16T09:11:53.456Z,99.90
2022-08-16T09:14:31.499Z,99.90
2022-08-16T09:17:03.286Z,99.90
2022-08-16T09:19:40.789Z,99.90
2022-08-16T09:22:19.978Z,99.90
2022-08-16T09:24:53.555Z,99.90
2022-08-16T09:27:25.348Z,99.90
2022-08-16T09:30:00.041Z,99.90
2022-08-16T09:32:30.470Z,99.70
2022-08-16T09:34:58.810Z,97.10
2022-08-16T09:37:29.212Z,93.70
2022-08-16T09:39:59.682Z,92.20
2022-08-16T09:42:28.857Z,91.90
2022-08-16T09:45:12.407Z,88.80
2022-08-16T09:47:57.224Z,86.80
2022-08-16T09:50:37.003Z,81.80
2022-08-16T09:53:19.056Z,83.70
2022-08-16T09:55:50.050Z,80.90
2022-08-16T09:58:41.727Z,80.80
2022-08-16T10:01:06.388Z,86.20
2022-08-16T10:03:35.298Z,80.40
2022-08-16T10:06:02.015Z,82.10
2022-08-16T10:08:28.599Z,84.20
2022-08-16T10:11:14.042Z,81.70
2022-08-16T10:13:43.702Z,81.50
2022-08-16T10:19:01.866Z,80.40
2022-08-16T10:21:29.317Z,80.50
2022-08-16T10:23:58.828Z,79.40
2022-08-16T10:27:19.265Z,80.90
2022-08-16T10:29:12.542Z,80.20
2022-08-16T10:31:53.811Z,79.30
2022-08-16T10:34:31.258Z,80.00
2022-08-16T10:37:00.785Z,80.00
2022-08-16T10:39:40.608Z,83.40
2022-08-16T10:42:09.256Z,82.00
2022-08-16T10:44:36.387Z,77.70
2022-08-16T10:47:05.801Z,78.50
2022-08-16T10:49:32.833Z,79.30
2022-08-16T10:52:02.587Z,77.50
2022-08-16T10:55:40.959Z,80.60
2022-08-16T10:57:43.209Z,82.00
2022-08-16T11:00:21.127Z,83.20
2022-08-16T11:02:57.955Z,80.10
2022-08-16T11:08:35.916Z,82.20
2022-08-16T11:11:10.591Z,82.20
2022-08-16T11:19:20.309Z,80.70
2022-08-16T11:24:44.655Z,82.00
2022-08-16T11:27:23.937Z,84.20
2022-08-16T11:30:00.033Z,83.80
2022-08-16T11:32:31.442Z,85.50
2022-08-16T11:35:10.872Z,87.10
2022-08-16T11:40:32.475Z,88.50
2022-08-16T11:43:01.373Z,88.60
2022-08-16T11:45:31.533Z,90.20
2022-08-16T11:48:01.645Z,87.10
2022-08-16T11:50:28.805Z,82.20
2022-08-16T11:52:55.465Z,81.20
2022-08-16T11:55:23.664Z,80.60
2022-08-16T11:57:51.556Z,82.60
2022-08-16T12:00:50.228Z,82.80
2022-08-16T12:03:11.668Z,82.20
2022-08-16T12:05:40.429Z,81.10
2022-08-16T12:08:08.975Z,82.60
2022-08-16T12:10:38.897Z,80.10
2022-08-16T12:13:07.255Z,80.30
2022-08-16T12:15:37.913Z,83.00
2022-08-16T12:18:06.792Z,79.60
2022-08-16T12:20:38.724Z,77.90
2022-08-16T12:23:06.786Z,76.20
2022-08-16T12:25:35.319Z,75.60
2022-08-16T12:28:04.281Z,75.60
2022-08-16T12:30:38.544Z,76.60
2022-08-16T12:33:07.685Z,76.80
2022-08-16T12:35:36.484Z,83.10
2022-08-16T12:38:35.783Z,78.50
2022-08-16T12:40:57.121Z,80.30
2022-08-16T12:43:25.250Z,81.60
2022-08-16T12:45:55.252Z,77.60
2022-08-16T12:48:44.319Z,77.60
2022-08-16T12:51:19.899Z,76.50
2022-08-16T12:53:53.421Z,75.90
2022-08-16T12:56:25.399Z,77.40
2022-08-16T12:58:53.230Z,76.90
2022-08-16T13:01:34.113Z,76.50
2022-08-16T13:04:11.958Z,78.70
2022-08-16T13:06:48.507Z,78.00
2022-08-16T13:09:23.072Z,79.80
2022-08-16T13:12:15.778Z,79.80
2022-08-16T13:14:44.680Z,77.90
2022-08-16T13:17:18.803Z,78.10
2022-08-16T13:22:33.934Z,78.60
2022-08-16T13:25:00.832Z,77.60
2022-08-16T13:28:03.171Z,78.90
2022-08-16T13:30:35.357Z,76.20
2022-08-16T13:33:01.171Z,76.80
2022-08-16T13:35:34.546Z,77.40
2022-08-16T13:38:01.678Z,78.20
2022-08-16T13:40:30.213Z,78.60
2022-08-16T13:42:57.028Z,77.50
2022-08-16T13:45:23.670Z,81.20
2022-08-16T13:47:52.931Z,78.80
2022-08-16T13:50:31.255Z,78.20
2022-08-16T13:53:07.292Z,77.60
2022-08-16T13:55:34.636Z,80.50
2022-08-16T13:58:36.282Z,80.60
2022-08-16T14:00:52.693Z,82.00
2022-08-16T14:03:21.517Z,81.80
2022-08-16T14:05:52.569Z,82.90
2022-08-16T14:08:21.814Z,83.50
2022-08-16T14:10:52.157Z,83.50
2022-08-16T14:13:21.185Z,83.10
2022-08-16T14:15:48.656Z,84.70
2022-08-16T14:18:17.586Z,84.90
2022-08-16T14:20:48.423Z,85.40
2022-08-16T14:23:15.740Z,84.30
2022-08-16T14:25:42.744Z,84.80
2022-08-16T14:28:20.501Z,82.20
2022-08-16T14:30:50.645Z,84.20
2022-08-16T14:33:18.284Z,82.80
2022-08-16T14:35:49.398Z,82.00
2022-08-16T14:38:19.075Z,81.40
2022-08-16T14:40:55.179Z,82.10
2022-08-16T14:43:22.974Z,79.90
2022-08-16T14:45:50.418Z,79.70
2022-08-16T14:48:23.047Z,81.10
2022-08-16T14:50:52.518Z,78.80
2022-08-16T14:53:19.129Z,79.40
2022-08-16T14:55:46.084Z,79.10
2022-08-16T14:58:19.580Z,79.30
2022-08-16T15:00:50.463Z,80.10
2022-08-16T15:03:21.701Z,79.00
2022-08-16T15:05:49.701Z,78.00
2022-08-16T15:08:20.785Z,80.40
2022-08-16T15:10:47.902Z,81.00
2022-08-16T15:13:15.326Z,78.90
2022-08-16T15:15:43.391Z,79.70
2022-08-16T15:18:12.073Z,77.90
2022-08-16T15:20:41.037Z,78.80
2022-08-16T15:23:09.124Z,78.10
2022-08-16T15:25:41.527Z,78.80
2022-08-16T15:28:23.395Z,79.30
2022-08-16T15:31:00.332Z,79.30
2022-08-16T15:33:30.025Z,77.80
2022-08-16T15:35:59.891Z,78.70
2022-08-16T15:38:55.029Z,78.20
2022-08-16T15:41:38.070Z,79.20
2022-08-16T15:44:10.436Z,78.90
2022-08-16T15:46:56.371Z,78.70
2022-08-16T15:49:37.273Z,78.10
2022-08-16T15:52:24.994Z,80.10
2022-08-16T15:54:57.284Z,79.80
2022-08-16T15:57:26.100Z,80.20
2022-08-16T15:59:57.753Z,80.80
2022-08-16T16:02:31.753Z,82.30
2022-08-16T16:05:07.077Z,81.30
2022-08-16T16:07:40.676Z,81.50
2022-08-16T16:10:22.977Z,82.10
2022-08-16T16:12:57.970Z,82.20
2022-08-16T16:15:30.238Z,82.60
2022-08-16T16:17:57.742Z,83.00
2022-08-16T16:20:27.960Z,82.90
2022-08-16T16:22:59.557Z,84.30
2022-08-16T16:25:27.374Z,84.80
2022-08-16T16:27:59.711Z,84.80
2022-08-16T16:30:37.613Z,84.50
2022-08-16T16:33:15.484Z,84.40
2022-08-16T16:35:48.117Z,84.40
2022-08-16T16:38:29.956Z,84.70
2022-08-16T16:41:02.469Z,84.80
2022-08-16T16:43:31.675Z,84.10
2022-08-16T16:45:59.117Z,85.10
2022-08-16T16:48:29.704Z,84.50
2022-08-16T16:51:08.690Z,85.20
2022-08-16T16:53:41.928Z,85.70
2022-08-16T16:56:19.563Z,86.50
2022-08-16T16:58:57.109Z,86.40
2022-08-16T17:01:56.633Z,87.00
2022-08-16T17:04:31.943Z,87.10
2022-08-16T17:07:01.417Z,87.30
2022-08-16T17:09:28.419Z,87.40
2022-08-16T17:11:56.586Z,87.60
2022-08-16T17:14:33.359Z,88.00
2022-08-16T17:17:04.088Z,88.50
2022-08-16T17:19:31.677Z,89.10
2022-08-16T17:21:59.149Z,88.80
2022-08-16T17:24:31.962Z,89.40
2022-08-16T17:27:07.596Z,89.60
2022-08-16T17:29:35.010Z,90.30
2022-08-16T17:32:33.625Z,91.00
2022-08-16T17:35:01.751Z,91.70
2022-08-16T17:37:42.508Z,92.30
2022-08-16T17:40:25.409Z,93.00
2022-08-16T17:43:05.441Z,93.30
2022-08-16T17:45:33.145Z,93.80
2022-08-16T17:48:00.799Z,94.20
2022-08-16T17:50:28.917Z,94.70
2022-08-16T17:52:57.218Z,94.90
2022-08-16T17:55:27.314Z,95.30
2022-08-16T17:57:54.033Z,95.70
2022-08-16T18:00:21.892Z,96.20
2022-08-16T18:02:50.220Z,96.70
2022-08-16T18:05:18.217Z,97.20
2022-08-16T18:07:45.131Z,97.70
2022-08-16T18:10:12.207Z,98.30
2022-08-16T18:12:55.150Z,98.90
2022-08-16T18:15:24.109Z,99.60
2022-08-16T18:17:53.067Z,99.90
2022-08-16T18:20:45.402Z,99.90
2022-08-16T18:23:19.198Z,99.90
2022-08-16T18:25:53.867Z,99.90
2022-08-16T18:28:21.221Z,99.90
2022-08-16T18:30:51.624Z,99.90
2022-08-16T18:33:21.431Z,99.90
2022-08-16T18:35:48.522Z,99.90
2022-08-16T18:38:15.376Z,99.90
2022-08-16T18:40:42.993Z,99.90
2022-08-16T18:43:13.773Z,99.90
2022-08-16T18:45:42.882Z,99.90
2022-08-16T18:48:11.341Z,99.90
2022-08-16T18:50:59.650Z,99.90
2022-08-16T18:53:28.564Z,99.90
2022-08-16T18:55:58.208Z,99.90
2022-08-16T18:58:25.975Z,99.90
2022-08-16T19:00:56.485Z,99.90
2022-08-16T19:03:27.758Z,99.90
2022-08-16T19:06:11.283Z,99.90
2022-08-16T19:08:40.238Z,99.90
2022-08-16T19:11:09.205Z,99.90
2022-08-16T19:13:36.261Z,99.90
2022-08-16T19:16:04.104Z,99.90
2022-08-16T19:18:36.674Z,99.90
2022-08-16T19:21:05.161Z,99.90
2022-08-16T19:23:34.467Z,99.90
2022-08-16T19:26:06.796Z,99.90
2022-08-16T19:28:59.673Z,99.90
2022-08-16T19:31:33.368Z,99.90
2022-08-16T19:34:00.840Z,99.90
2022-08-16T19:36:35.837Z,99.90
2022-08-16T19:39:09.386Z,99.90
2022-08-16T19:41:38.633Z,99.90
2022-08-16T19:44:05.895Z,99.90
2022-08-16T19:46:32.648Z,99.90
2022-08-16T19:48:59.826Z,99.90
2022-08-16T19:51:26.584Z,99.90
2022-08-16T19:53:53.257Z,99.90
2022-08-16T19:56:22.231Z,99.90
2022-08-16T19:59:16.413Z,99.90
2022-08-16T20:01:41.668Z,99.90
2022-08-16T20:04:11.810Z,99.90
2022-08-16T20:06:38.992Z,99.90
2022-08-16T20:09:06.433Z,99.90
2022-08-16T20:11:34.118Z,99.90
2022-08-16T20:14:00.722Z,99.90
2022-08-16T20:16:27.334Z,99.90
2022-08-16T20:18:53.944Z,99.90
2022-08-16T20:21:20.643Z,99.90
2022-08-16T20:23:47.260Z,99.90
2022-08-16T20:26:13.896Z,99.90
2022-08-16T20:28:54.144Z,99.90
2022-08-16T20:31:22.870Z,99.90
2022-08-16T20:33:50.181Z,99.90
2022-08-16T20:36:17.088Z,99.90
2022-08-16T20:38:46.727Z,99.90
2022-08-16T20:41:13.911Z,99.90
2022-08-16T20:43:40.707Z,99.90
2022-08-16T20:46:07.555Z,99.90
2022-08-16T20:48:34.168Z,99.90
2022-08-16T20:51:00.774Z,99.90
2022-08-16T20:53:27.382Z,99.90
2022-08-16T20:55:54.252Z,99.90
2022-08-16T20:58:20.839Z,99.90
2022-08-16T21:00:47.642Z,99.90
2022-08-16T21:03:14.441Z,99.90
2022-08-16T21:05:41.218Z,99.90
2022-08-16T21:08:52.636Z,99.90
2022-08-16T21:10:56.425Z,99.90
2022-08-16T21:13:30.551Z,99.90
2022-08-16T21:15:58.421Z,99.90
2022-08-16T21:18:25.525Z,99.90
2022-08-16T21:20:52.791Z,99.90
2022-08-16T21:23:19.475Z,99.90
2022-08-16T21:25:51.217Z,99.90
2022-08-16T21:28:40.070Z,99.90
2022-08-16T21:31:09.486Z,99.90
2022-08-16T21:33:36.393Z,99.90
2022-08-16T21:36:03.273Z,99.90
2022-08-16T21:38:31.111Z,99.90
2022-08-16T21:40:59.285Z,99.90
2022-08-16T21:43:28.570Z,99.90
2022-08-16T21:45:55.808Z,99.90
2022-08-16T21:48:34.165Z,99.90
2022-08-16T21:51:09.739Z,99.90
2022-08-16T21:53:37.719Z,99.90
2022-08-16T21:56:06.178Z,99.90
2022-08-16T21:58:33.237Z,99.90
2022-08-16T22:01:01.278Z,99.90
2022-08-16T22:03:32.650Z,99.90
2022-08-16T22:06:14.132Z,99.90
2022-08-16T22:08:49.643Z,99.90
2022-08-16T22:11:23.030Z,99.90
2022-08-16T22:13:57.298Z,99.90
2022-08-16T22:16:26.073Z,99.90
2022-08-16T22:18:52.790Z,99.90
2022-08-16T22:21:19.986Z,99.90
2022-08-16T22:23:57.105Z,99.90
2022-08-16T22:26:29.126Z,99.90
2022-08-16T22:29:02.094Z,99.90
2022-08-16T22:31:29.151Z,99.90
2022-08-16T22:33:56.680Z,99.90
2022-08-16T22:36:23.694Z,99.90
2022-08-16T22:38:59.406Z,99.90
2022-08-16T22:41:28.308Z,99.90
2022-08-16T22:43:55.012Z,99.90
2022-08-16T22:46:21.669Z,99.90
2022-08-16T22:48:50.136Z,99.90
2022-08-16T22:51:18.362Z,99.90
2022-08-16T22:53:45.074Z,99.90
2022-08-16T22:56:11.893Z,99.90
2022-08-16T22:58:39.354Z,99.90
2022-08-16T23:01:07.446Z,99.90
2022-08-16T23:03:35.114Z,99.90
2022-08-16T23:06:02.196Z,99.90
2022-08-16T23:08:38.268Z,99.90
2022-08-16T23:11:12.213Z,99.90
2022-08-16T23:13:51.474Z,99.90
2022-08-16T23:16:23.373Z,99.90
2022-08-16T23:18:59.739Z,99.90
2022-08-16T23:21:26.619Z,99.90
2022-08-16T23:23:53.899Z,99.90
2022-08-16T23:26:44.673Z,99.90
2022-08-16T23:29:07.544Z,99.90
2022-08-16T23:31:47.758Z,99.90
2022-08-16T23:34:14.589Z,99.90
2022-08-16T23:36:41.237Z,99.90
2022-08-16T23:39:08.077Z,99.90
2022-08-16T23:41:34.850Z,99.90
2022-08-16T23:44:01.942Z,99.90
2022-08-16T23:46:49.263Z,99.90
2022-08-16T23:49:59.064Z,99.90
2022-08-16T23:52:09.808Z,99.90
2022-08-16T23:54:36.610Z,99.90
2022-08-16T23:57:03.709Z,99.90
2022-08-16T23:59:30.377Z,99.90
